sensor_id;sensor_type;location;lat;lon;timestamp;pressure;altitude;pressure_sealevel;temperature;humidity
24610;BME280;12758;47.890;11.694;2023-02-22T00:01:53;93720.31;;;8.01;100.00
24610;BME280;12758;47.890;11.694;2023-02-22T00:04:35;93721.06;;;7.92;100.00
24610;BME280;12758;47.890;11.694;2023-02-22T00:07:01;93721.06;;;7.92;100.00
24610;BME280;12758;47.890;11.694;2023-02-22T00:09:27;93716.78;;;7.91;100.00
24610;BME280;12758;47.890;11.694;2023-02-22T00:11:54;93718.38;;;7.92;100.00
24610;BME280;12758;47.890;11.694;2023-02-22T00:14:20;93711.38;;;7.91;100.00
24610;BME280;12758;47.890;11.694;2023-02-22T00:16:46;93707.09;;;7.90;100.00
24610;BME280;12758;47.890;11.694;2023-02-22T00:19:12;93714.22;;;7.86;100.00
24610;BME280;12758;47.890;11.694;2023-02-22T00:21:38;93708.19;;;7.89;100.00
24610;BME280;12758;47.890;11.694;2023-02-22T00:24:05;93705.97;;;7.91;100.00
24610;BME280;12758;47.890;11.694;2023-02-22T00:26:48;93698.00;;;7.86;100.00
24610;BME280;12758;47.890;11.694;2023-02-22T00:29:14;93710.91;;;7.89;100.00
24610;BME280;12758;47.890;11.694;2023-02-22T00:31:40;93705.03;;;7.87;100.00
24610;BME280;12758;47.890;11.694;2023-02-22T00:34:06;93702.47;;;7.82;100.00
24610;BME280;12758;47.890;11.694;2023-02-22T00:36:32;93707.88;;;7.82;100.00
24610;BME280;12758;47.890;11.694;2023-02-22T00:38:58;93702.47;;;7.82;100.00
24610;BME280;12758;47.890;11.694;2023-02-22T00:41:24;93695.81;;;7.88;100.00
24610;BME280;12758;47.890;11.694;2023-02-22T00:43:50;93701.84;;;7.85;100.00
24610;BME280;12758;47.890;11.694;2023-02-22T00:46:16;93708.19;;;7.89;100.00
24610;BME280;12758;47.890;11.694;2023-02-22T00:48:42;93694.84;;;7.84;100.00
24610;BME280;12758;47.890;11.694;2023-02-22T00:51:08;93701.19;;;7.71;100.00
24610;BME280;12758;47.890;11.694;2023-02-22T00:53:34;93703.50;;;7.64;100.00
24610;BME280;12758;47.890;11.694;2023-02-22T00:56:00;93702.88;;;7.58;100.00
24610;BME280;12758;47.890;11.694;2023-02-22T00:58:27;93703.06;;;7.62;96.32
24610;BME280;12758;47.890;11.694;2023-02-22T01:00:53;93698.44;;;7.62;100.00
24610;BME280;12758;47.890;11.694;2023-02-22T01:03:19;93694.97;;;7.70;100.00
24610;BME280;12758;47.890;11.694;2023-02-22T01:05:46;93690.84;;;7.64;100.00
24610;BME280;12758;47.890;11.694;2023-02-22T01:08:13;93694.78;;;7.67;100.00
24610;BME280;12758;47.890;11.694;2023-02-22T01:10:40;93690.50;;;7.66;100.00
24610;BME280;12758;47.890;11.694;2023-02-22T01:13:07;93691.16;;;7.72;100.00
24610;BME280;12758;47.890;11.694;2023-02-22T01:15:35;93690.00;;;7.64;100.00
24610;BME280;12758;47.890;11.694;2023-02-22T01:18:02;93683.66;;;7.60;100.00
24610;BME280;12758;47.890;11.694;2023-02-22T01:20:29;93679.88;;;7.61;100.00
24610;BME280;12758;47.890;11.694;2023-02-22T01:22:57;93684.91;;;7.54;97.12
24610;BME280;12758;47.890;11.694;2023-02-22T01:25:25;93681.44;;;7.62;100.00
24610;BME280;12758;47.890;11.694;2023-02-22T01:27:52;93680.31;;;7.63;100.00
24610;BME280;12758;47.890;11.694;2023-02-22T01:30:20;93680.50;;;7.58;100.00
24610;BME280;12758;47.890;11.694;2023-02-22T01:32:47;93685.69;;;7.54;100.00
24610;BME280;12758;47.890;11.694;2023-02-22T01:35:18;93687.75;;;7.49;100.00
24610;BME280;12758;47.890;11.694;2023-02-22T01:37:44;93683.94;;;7.50;100.00
24610;BME280;12758;47.890;11.694;2023-02-22T01:40:17;93671.56;;;7.49;100.00
24610;BME280;12758;47.890;11.694;2023-02-22T01:42:46;93675.97;;;7.44;100.00
24610;BME280;12758;47.890;11.694;2023-02-22T01:48:20;93681.75;;;7.52;100.00
24610;BME280;12758;47.890;11.694;2023-02-22T01:50:51;93684.56;;;7.46;100.00
24610;BME280;12758;47.890;11.694;2023-02-22T01:53:20;93669.94;;;7.47;100.00
24610;BME280;12758;47.890;11.694;2023-02-22T01:55:47;93677.41;;;7.42;100.00
24610;BME280;12758;47.890;11.694;2023-02-22T01:58:13;93674.06;;;7.36;100.00
24610;BME280;12758;47.890;11.694;2023-02-22T02:00:41;93664.84;;;7.37;100.00
24610;BME280;12758;47.890;11.694;2023-02-22T02:03:12;93670.22;;;7.37;100.00
24610;BME280;12758;47.890;11.694;2023-02-22T02:05:41;93663.25;;;7.36;100.00
24610;BME280;12758;47.890;11.694;2023-02-22T02:08:13;93660.06;;;7.34;100.00
24610;BME280;12758;47.890;11.694;2023-02-22T02:10:41;93652.44;;;7.36;100.00
24610;BME280;12758;47.890;11.694;2023-02-22T02:13:07;93648.50;;;7.42;100.00
24610;BME280;12758;47.890;11.694;2023-02-22T02:15:34;93646.91;;;7.41;100.00
24610;BME280;12758;47.890;11.694;2023-02-22T02:18:03;93641.66;;;7.36;100.00
24610;BME280;12758;47.890;11.694;2023-02-22T02:20:33;93643.41;;;7.32;100.00
24610;BME280;12758;47.890;11.694;2023-02-22T02:23:07;93638.75;;;7.24;100.00
24610;BME280;12758;47.890;11.694;2023-02-22T02:25:56;93638.75;;;7.24;100.00
24610;BME280;12758;47.890;11.694;2023-02-22T02:29:10;93636.09;;;7.33;100.00
24610;BME280;12758;47.890;11.694;2023-02-22T02:32:16;93631.66;;;7.37;100.00
24610;BME280;12758;47.890;11.694;2023-02-22T02:34:48;93642.13;;;7.30;99.25
24610;BME280;12758;47.890;11.694;2023-02-22T02:37:19;93631.16;;;7.26;99.76
24610;BME280;12758;47.890;11.694;2023-02-22T02:39:49;93628.13;;;7.28;100.00
24610;BME280;12758;47.890;11.694;2023-02-22T02:42:20;93619.19;;;7.18;100.00
24610;BME280;12758;47.890;11.694;2023-02-22T02:44:53;93618.41;;;7.18;100.00
24610;BME280;12758;47.890;11.694;2023-02-22T02:47:22;93613.16;;;7.21;100.00
24610;BME280;12758;47.890;11.694;2023-02-22T02:49:54;93610.00;;;7.19;100.00
24610;BME280;12758;47.890;11.694;2023-02-22T02:52:22;93603.00;;;7.18;100.00
24610;BME280;12758;47.890;11.694;2023-02-22T02:54:49;93596.81;;;7.18;100.00
24610;BME280;12758;47.890;11.694;2023-02-22T02:57:16;93599.66;;;7.13;100.00
24610;BME280;12758;47.890;11.694;2023-02-22T02:59:42;93596.47;;;7.11;100.00
24610;BME280;12758;47.890;11.694;2023-02-22T03:02:20;93592.03;;;7.15;99.95
24610;BME280;12758;47.890;11.694;2023-02-22T03:05:02;93591.88;;;7.11;99.77
24610;BME280;12758;47.890;11.694;2023-02-22T03:07:50;93578.69;;;7.10;100.00
24610;BME280;12758;47.890;11.694;2023-02-22T03:10:27;93584.72;;;7.07;99.98
24610;BME280;12758;47.890;11.694;2023-02-22T03:13:00;93588.66;;;7.00;100.00
24610;BME280;12758;47.890;11.694;2023-02-22T03:15:34;93582.78;;;6.98;100.00
24610;BME280;12758;47.890;11.694;2023-02-22T03:18:06;93582.78;;;6.98;100.00
24610;BME280;12758;47.890;11.694;2023-02-22T03:20:40;93583.72;;;7.03;100.00
24610;BME280;12758;47.890;11.694;2023-02-22T03:23:10;93590.38;;;6.96;100.00
24610;BME280;12758;47.890;11.694;2023-02-22T03:25:40;93581.19;;;6.97;100.00
24610;BME280;12758;47.890;11.694;2023-02-22T03:28:09;93575.63;;;6.94;98.93
24610;BME280;12758;47.890;11.694;2023-02-22T03:30:40;93580.25;;;6.93;100.00
24610;BME280;12758;47.890;11.694;2023-02-22T03:33:09;93584.50;;;6.94;100.00
24610;BME280;12758;47.890;11.694;2023-02-22T03:35:39;93588.78;;;6.95;100.00
24610;BME280;12758;47.890;11.694;2023-02-22T03:38:09;93603.06;;;6.87;100.00
24610;BME280;12758;47.890;11.694;2023-02-22T03:40:38;93599.69;;;6.82;100.00
24610;BME280;12758;47.890;11.694;2023-02-22T03:43:09;93603.19;;;6.82;100.00
24610;BME280;12758;47.890;11.694;2023-02-22T03:45:39;93601.28;;;6.83;100.00
24610;BME280;12758;47.890;11.694;2023-02-22T03:48:15;93588.13;;;6.81;100.00
24610;BME280;12758;47.890;11.694;2023-02-22T03:50:45;93596.06;;;6.86;100.00
24610;BME280;12758;47.890;11.694;2023-02-22T03:53:11;93595.72;;;6.79;100.00
24610;BME280;12758;47.890;11.694;2023-02-22T03:55:37;93585.72;;;6.80;99.79
24610;BME280;12758;47.890;11.694;2023-02-22T03:58:04;93595.72;;;6.79;100.00
24610;BME280;12758;47.890;11.694;2023-02-22T04:00:32;93589.34;;;6.75;100.00
24610;BME280;12758;47.890;11.694;2023-02-22T04:02:59;93583.63;;;6.68;99.99
24610;BME280;12758;47.890;11.694;2023-02-22T04:05:25;93584.50;;;6.10;94.76
24610;BME280;12758;47.890;11.694;2023-02-22T04:07:52;93586.59;;;6.35;100.00
24610;BME280;12758;47.890;11.694;2023-02-22T04:10:19;93583.00;;;6.48;100.00
24610;BME280;12758;47.890;11.694;2023-02-22T04:12:45;93582.91;;;6.53;100.00
24610;BME280;12758;47.890;11.694;2023-02-22T04:15:12;93583.56;;;6.59;100.00
24610;BME280;12758;47.890;11.694;2023-02-22T04:17:40;93584.84;;;6.62;100.00
24610;BME280;12758;47.890;11.694;2023-02-22T04:20:06;93583.25;;;6.61;100.00
24610;BME280;12758;47.890;11.694;2023-02-22T04:22:32;93583.84;;;6.58;100.00
24610;BME280;12758;47.890;11.694;2023-02-22T04:24:59;93590.06;;;6.58;100.00
24610;BME280;12758;47.890;11.694;2023-02-22T04:27:25;93595.63;;;6.62;100.00
24610;BME280;12758;47.890;11.694;2023-02-22T04:29:51;93587.56;;;6.62;100.00
24610;BME280;12758;47.890;11.694;2023-02-22T04:32:17;93584.22;;;6.65;100.00
24610;BME280;12758;47.890;11.694;2023-02-22T04:34:43;93583.25;;;6.61;100.00
24610;BME280;12758;47.890;11.694;2023-02-22T04:37:09;93577.84;;;6.61;100.00
24610;BME280;12758;47.890;11.694;2023-02-22T04:39:35;93570.09;;;6.59;100.00
24610;BME280;12758;47.890;11.694;2023-02-22T04:42:02;93573.25;;;6.61;100.00
24610;BME280;12758;47.890;11.694;2023-02-22T04:44:29;93569.59;;;6.57;100.00
24610;BME280;12758;47.890;11.694;2023-02-22T04:46:55;93579.09;;;6.54;100.00
24610;BME280;12758;47.890;11.694;2023-02-22T04:49:22;93575.91;;;6.52;100.00
24610;BME280;12758;47.890;11.694;2023-02-22T04:51:48;93576.38;;;6.46;100.00
24610;BME280;12758;47.890;11.694;2023-02-22T04:54:14;93579.69;;;6.51;100.00
24610;BME280;12758;47.890;11.694;2023-02-22T04:56:41;93577.84;;;6.29;91.25
24610;BME280;12758;47.890;11.694;2023-02-22T04:59:08;93573.59;;;6.37;99.98
24610;BME280;12758;47.890;11.694;2023-02-22T05:01:35;93572.19;;;6.40;100.00
24610;BME280;12758;47.890;11.694;2023-02-22T05:04:01;93573.00;;;6.40;100.00
24610;BME280;12758;47.890;11.694;2023-02-22T05:06:28;93572.88;;;6.45;100.00
24610;BME280;12758;47.890;11.694;2023-02-22T05:08:54;93565.41;;;6.42;100.00
24610;BME280;12758;47.890;11.694;2023-02-22T05:11:20;93571.41;;;6.39;100.00
24610;BME280;12758;47.890;11.694;2023-02-22T05:13:46;93571.41;;;6.39;99.91
24610;BME280;12758;47.890;11.694;2023-02-22T05:16:13;93561.41;;;6.40;100.00
24610;BME280;12758;47.890;11.694;2023-02-22T05:18:39;93561.25;;;6.36;100.00
24610;BME280;12758;47.890;11.694;2023-02-22T05:21:05;93561.25;;;6.36;98.71
24610;BME280;12758;47.890;11.694;2023-02-22T05:23:31;93560.00;;;6.42;100.00
24610;BME280;12758;47.890;11.694;2023-02-22T05:25:58;93552.53;;;6.39;100.00
24610;BME280;12758;47.890;11.694;2023-02-22T05:28:24;93552.03;;;6.37;99.60
24610;BME280;12758;47.890;11.694;2023-02-22T05:30:50;93554.84;;;6.32;99.48
24610;BME280;12758;47.890;11.694;2023-02-22T05:33:17;93553.22;;;6.22;93.06
24610;BME280;12758;47.890;11.694;2023-02-22T05:35:43;93557.09;;;6.30;99.36
24610;BME280;12758;47.890;11.694;2023-02-22T05:38:12;93545.94;;;6.23;100.00
24610;BME280;12758;47.890;11.694;2023-02-22T05:40:40;93544.25;;;6.04;92.46
24610;BME280;12758;47.890;11.694;2023-02-22T05:43:06;93536.63;;;6.06;98.21
24610;BME280;12758;47.890;11.694;2023-02-22T05:45:32;93544.00;;;6.15;100.00
24610;BME280;12758;47.890;11.694;2023-02-22T05:47:58;93541.78;;;6.17;100.00
24610;BME280;12758;47.890;11.694;2023-02-22T05:50:25;93541.19;;;6.20;100.00
24610;BME280;12758;47.890;11.694;2023-02-22T05:52:52;93547.53;;;6.24;100.00
24610;BME280;12758;47.890;11.694;2023-02-22T05:55:20;93562.25;;;5.95;93.81
24610;BME280;12758;47.890;11.694;2023-02-22T05:57:46;93552.19;;;6.10;100.00
24610;BME280;12758;47.890;11.694;2023-02-22T06:00:15;93559.81;;;6.07;100.00
24610;BME280;12758;47.890;11.694;2023-02-22T06:02:42;93552.19;;;6.10;100.00
24610;BME280;12758;47.890;11.694;2023-02-22T06:05:08;93554.75;;;6.15;100.00
24610;BME280;12758;47.890;11.694;2023-02-22T06:07:34;93544.97;;;6.19;100.00
24610;BME280;12758;47.890;11.694;2023-02-22T06:10:00;93539.81;;;6.09;100.00
24610;BME280;12758;47.890;11.694;2023-02-22T06:12:26;93550.94;;;6.07;100.00
24610;BME280;12758;47.890;11.694;2023-02-22T06:14:52;93540.63;;;6.09;100.00
24610;BME280;12758;47.890;11.694;2023-02-22T06:17:18;93544.50;;;5.94;94.74
24610;BME280;12758;47.890;11.694;2023-02-22T06:19:44;93547.06;;;5.99;98.88
24610;BME280;12758;47.890;11.694;2023-02-22T06:22:15;93548.66;;;6.00;100.00
24610;BME280;12758;47.890;11.694;2023-02-22T06:24:41;93551.81;;;6.02;100.00
24610;BME280;12758;47.890;11.694;2023-02-22T06:27:07;93558.31;;;6.01;100.00
24610;BME280;12758;47.890;11.694;2023-02-22T06:29:33;93560.41;;;6.04;100.00
24610;BME280;12758;47.890;11.694;2023-02-22T06:31:59;93567.38;;;6.05;100.00
24610;BME280;12758;47.890;11.694;2023-02-22T06:34:25;93563.53;;;5.98;97.46
24610;BME280;12758;47.890;11.694;2023-02-22T06:36:51;93561.81;;;6.02;100.00
24610;BME280;12758;47.890;11.694;2023-02-22T06:39:17;93573.38;;;6.02;100.00
24610;BME280;12758;47.890;11.694;2023-02-22T06:41:45;93565.91;;;5.99;100.00
24610;BME280;12758;47.890;11.694;2023-02-22T06:44:12;93566.06;;;5.94;98.66
24610;BME280;12758;47.890;11.694;2023-02-22T06:46:38;93559.22;;;5.97;99.91
24610;BME280;12758;47.890;11.694;2023-02-22T06:49:04;93560.66;;;5.94;99.82
24610;BME280;12758;47.890;11.694;2023-02-22T06:51:34;93570.81;;;5.97;100.00
24610;BME280;12758;47.890;11.694;2023-02-22T06:54:01;93568.59;;;5.99;99.66
24610;BME280;12758;47.890;11.694;2023-02-22T06:56:27;93571.78;;;6.01;99.88
24610;BME280;12758;47.890;11.694;2023-02-22T06:58:54;93568.59;;;5.99;99.31
24610;BME280;12758;47.890;11.694;2023-02-22T07:01:20;93573.53;;;5.97;99.86
24610;BME280;12758;47.890;11.694;2023-02-22T07:03:47;93583.69;;;6.00;99.49
24610;BME280;12758;47.890;11.694;2023-02-22T07:06:13;93581.00;;;6.00;99.17
24610;BME280;12758;47.890;11.694;2023-02-22T07:08:39;93588.75;;;6.02;99.73
24610;BME280;12758;47.890;11.694;2023-02-22T07:11:05;93585.56;;;6.00;99.44
24610;BME280;12758;47.890;11.694;2023-02-22T07:13:31;93585.38;;;5.96;98.40
24610;BME280;12758;47.890;11.694;2023-02-22T07:15:58;93585.81;;;5.76;96.04
24610;BME280;12758;47.890;11.694;2023-02-22T07:18:24;93577.63;;;5.81;98.65
24610;BME280;12758;47.890;11.694;2023-02-22T07:20:50;93582.91;;;5.86;99.64
24610;BME280;12758;47.890;11.694;2023-02-22T07:23:16;93585.22;;;5.79;97.51
24610;BME280;12758;47.890;11.694;2023-02-22T07:25:43;93583.50;;;5.83;100.00
24610;BME280;12758;47.890;11.694;2023-02-22T07:28:09;93580.63;;;5.79;99.18
24610;BME280;12758;47.890;11.694;2023-02-22T07:30:36;93573.72;;;5.87;99.84
24610;BME280;12758;47.890;11.694;2023-02-22T07:33:05;93578.97;;;5.92;99.15
24610;BME280;12758;47.890;11.694;2023-02-22T07:35:32;93571.00;;;5.87;99.44
24610;BME280;12758;47.890;11.694;2023-02-22T07:38:01;93572.00;;;5.91;99.71
24610;BME280;12758;47.890;11.694;2023-02-22T07:40:27;93569.81;;;5.93;98.82
24610;BME280;12758;47.890;11.694;2023-02-22T07:42:55;93560.13;;;5.92;97.61
24610;BME280;12758;47.890;11.694;2023-02-22T07:45:23;93570.66;;;5.80;100.00
24610;BME280;12758;47.890;11.694;2023-02-22T07:47:49;93560.97;;;5.56;100.00
24610;BME280;12758;47.890;11.694;2023-02-22T07:50:16;93558.00;;;5.44;100.00
24610;BME280;12758;47.890;11.694;2023-02-22T07:52:44;93559.97;;;5.52;100.00
24610;BME280;12758;47.890;11.694;2023-02-22T07:55:10;93562.53;;;5.57;100.00
24610;BME280;12758;47.890;11.694;2023-02-22T07:57:36;93560.13;;;5.70;100.00
24610;BME280;12758;47.890;11.694;2023-02-22T08:00:03;93562.00;;;5.69;100.00
24610;BME280;12758;47.890;11.694;2023-02-22T08:02:29;93566.16;;;5.39;100.00
24610;BME280;12758;47.890;11.694;2023-02-22T08:04:55;93555.81;;;5.46;100.00
24610;BME280;12758;47.890;11.694;2023-02-22T08:07:22;93561.03;;;5.15;100.00
24610;BME280;12758;47.890;11.694;2023-02-22T08:09:48;93568.06;;;4.88;100.00
24610;BME280;12758;47.890;11.694;2023-02-22T08:12:14;93561.88;;;4.88;100.00
24610;BME280;12758;47.890;11.694;2023-02-22T08:14:40;93569.72;;;4.71;100.00
24610;BME280;12758;47.890;11.694;2023-02-22T08:17:06;93562.66;;;4.75;100.00
24610;BME280;12758;47.890;11.694;2023-02-22T08:19:32;93559.09;;;4.65;100.00
24610;BME280;12758;47.890;11.694;2023-02-22T08:21:58;93557.88;;;4.72;100.00
24610;BME280;12758;47.890;11.694;2023-02-22T08:24:25;93553.00;;;4.60;100.00
24610;BME280;12758;47.890;11.694;2023-02-22T08:26:51;93547.91;;;4.58;100.00
24610;BME280;12758;47.890;11.694;2023-02-22T08:29:17;93554.31;;;4.62;100.00
24610;BME280;12758;47.890;11.694;2023-02-22T08:31:49;93546.03;;;4.59;100.00
24610;BME280;12758;47.890;11.694;2023-02-22T08:34:15;93549.13;;;4.66;100.00
24610;BME280;12758;47.890;11.694;2023-02-22T08:36:41;93545.13;;;4.77;100.00
24610;BME280;12758;47.890;11.694;2023-02-22T08:39:07;93545.44;;;4.76;100.00
24610;BME280;12758;47.890;11.694;2023-02-22T08:41:34;93542.56;;;4.86;100.00
24610;BME280;12758;47.890;11.694;2023-02-22T08:44:00;93541.22;;;4.97;100.00
24610;BME280;12758;47.890;11.694;2023-02-22T08:46:27;93543.91;;;4.97;100.00
24610;BME280;12758;47.890;11.694;2023-02-22T08:48:53;93538.97;;;5.04;100.00
24610;BME280;12758;47.890;11.694;2023-02-22T08:51:19;93533.97;;;5.11;100.00
24610;BME280;12758;47.890;11.694;2023-02-22T08:53:45;93541.38;;;5.28;100.00
24610;BME280;12758;47.890;11.694;2023-02-22T08:56:11;93537.69;;;5.38;100.00
24610;BME280;12758;47.890;11.694;2023-02-22T08:58:38;93532.53;;;5.28;100.00
24610;BME280;12758;47.890;11.694;2023-02-22T09:01:04;93534.97;;;5.38;100.00
24610;BME280;12758;47.890;11.694;2023-02-22T09:03:30;93528.91;;;5.32;100.00
24610;BME280;12758;47.890;11.694;2023-02-22T09:05:56;93535.50;;;5.40;100.00
24610;BME280;12758;47.890;11.694;2023-02-22T09:08:23;93529.31;;;5.40;100.00
24610;BME280;12758;47.890;11.694;2023-02-22T09:10:50;93539.06;;;5.49;100.00
24610;BME280;12758;47.890;11.694;2023-02-22T09:13:16;93532.66;;;5.45;100.00
24610;BME280;12758;47.890;11.694;2023-02-22T09:15:43;93528.53;;;5.61;100.00
24610;BME280;12758;47.890;11.694;2023-02-22T09:18:10;93530.88;;;5.99;100.00
24610;BME280;12758;47.890;11.694;2023-02-22T09:20:36;93529.09;;;6.48;99.47
24610;BME280;12758;47.890;11.694;2023-02-22T09:23:03;93529.91;;;6.89;95.86
24610;BME280;12758;47.890;11.694;2023-02-22T09:25:30;93533.97;;;7.26;91.04
24610;BME280;12758;47.890;11.694;2023-02-22T09:27:56;93533.97;;;7.43;84.43
24610;BME280;12758;47.890;11.694;2023-02-22T09:30:25;93529.22;;;7.40;86.92
24610;BME280;12758;47.890;11.694;2023-02-22T09:32:52;93524.44;;;7.20;87.22
24610;BME280;12758;47.890;11.694;2023-02-22T09:35:19;93527.75;;;7.17;87.76
24610;BME280;12758;47.890;11.694;2023-02-22T09:37:52;93523.66;;;6.71;94.39
24610;BME280;12758;47.890;11.694;2023-02-22T09:40:19;93522.69;;;6.67;94.31
24610;BME280;12758;47.890;11.694;2023-02-22T09:42:55;93520.47;;;6.69;95.52
24610;BME280;12758;47.890;11.694;2023-02-22T09:45:28;93521.06;;;7.14;89.00
24610;BME280;12758;47.890;11.694;2023-02-22T09:47:58;93520.50;;;7.52;89.62
24610;BME280;12758;47.890;11.694;2023-02-22T09:50:28;93521.72;;;7.29;91.00
24610;BME280;12758;47.890;11.694;2023-02-22T09:52:57;93518.03;;;6.98;95.20
24610;BME280;12758;47.890;11.694;2023-02-22T09:55:28;93515.41;;;6.76;99.44
24610;BME280;12758;47.890;11.694;2023-02-22T09:58:00;93518.06;;;6.67;100.00
24610;BME280;12758;47.890;11.694;2023-02-22T10:00:28;93511.75;;;7.29;94.29
24610;BME280;12758;47.890;11.694;2023-02-22T10:03:06;93510.47;;;7.70;88.89
24610;BME280;12758;47.890;11.694;2023-02-22T10:05:35;93514.94;;;7.66;90.66
24610;BME280;12758;47.890;11.694;2023-02-22T10:08:05;93505.22;;;7.47;92.23
24610;BME280;12758;47.890;11.694;2023-02-22T10:10:36;93507.63;;;7.58;97.29
24610;BME280;12758;47.890;11.694;2023-02-22T10:13:07;93503.00;;;7.84;95.04
24610;BME280;12758;47.890;11.694;2023-02-22T10:15:44;93489.94;;;8.68;86.81
24610;BME280;12758;47.890;11.694;2023-02-22T10:18:35;93498.06;;;8.98;75.79
24610;BME280;12758;47.890;11.694;2023-02-22T10:21:06;93501.91;;;8.58;81.11
24610;BME280;12758;47.890;11.694;2023-02-22T10:23:41;93499.88;;;9.44;70.09
24610;BME280;12758;47.890;11.694;2023-02-22T10:26:19;93499.47;;;9.33;71.51
24610;BME280;12758;47.890;11.694;2023-02-22T10:28:49;93496.69;;;10.05;68.38
24610;BME280;12758;47.890;11.694;2023-02-22T10:31:20;93497.28;;;9.69;75.65
24610;BME280;12758;47.890;11.694;2023-02-22T10:33:52;93491.94;;;10.02;72.96
24610;BME280;12758;47.890;11.694;2023-02-22T10:36:21;93480.50;;;10.30;68.60
24610;BME280;12758;47.890;11.694;2023-02-22T10:38:50;93487.84;;;10.87;60.38
24610;BME280;12758;47.890;11.694;2023-02-22T10:41:20;93486.25;;;10.86;60.10
24610;BME280;12758;47.890;11.694;2023-02-22T10:43:48;93489.63;;;10.70;58.05
24610;BME280;12758;47.890;11.694;2023-02-22T10:46:16;93472.75;;;10.19;59.31
24610;BME280;12758;47.890;11.694;2023-02-22T10:48:44;93486.69;;;11.00;55.44
24610;BME280;12758;47.890;11.694;2023-02-22T10:51:12;93484.88;;;11.41;50.02
24610;BME280;12758;47.890;11.694;2023-02-22T10:53:38;93475.38;;;11.10;51.86
24610;BME280;12758;47.890;11.694;2023-02-22T10:56:11;93480.84;;;10.98;49.35
24610;BME280;12758;47.890;11.694;2023-02-22T10:58:42;93487.28;;;11.71;49.88
24610;BME280;12758;47.890;11.694;2023-02-22T11:01:23;93472.31;;;11.77;47.28
24610;BME280;12758;47.890;11.694;2023-02-22T11:04:07;93479.06;;;12.07;44.29
24610;BME280;12758;47.890;11.694;2023-02-22T11:06:36;93473.84;;;12.02;45.57
24610;BME280;12758;47.890;11.694;2023-02-22T11:09:04;93472.28;;;12.01;44.65
24610;BME280;12758;47.890;11.694;2023-02-22T11:11:30;93463.28;;;11.73;45.38
24610;BME280;12758;47.890;11.694;2023-02-22T11:13:58;93458.34;;;11.62;43.92
24610;BME280;12758;47.890;11.694;2023-02-22T11:16:27;93464.38;;;11.31;43.82
24610;BME280;12758;47.890;11.694;2023-02-22T11:18:59;93455.34;;;11.68;45.17
24610;BME280;12758;47.890;11.694;2023-02-22T11:21:25;93456.16;;;11.68;42.42
24610;BME280;12758;47.890;11.694;2023-02-22T11:24:01;93452.28;;;11.16;44.90
24610;BME280;12758;47.890;11.694;2023-02-22T11:26:28;93445.28;;;11.15;48.04
24610;BME280;12758;47.890;11.694;2023-02-22T11:29:08;93442.03;;;11.91;43.96
24610;BME280;12758;47.890;11.694;2023-02-22T11:31:42;93437.66;;;12.14;42.31
24610;BME280;12758;47.890;11.694;2023-02-22T11:34:25;93432.25;;;12.30;42.71
24610;BME280;12758;47.890;11.694;2023-02-22T11:36:51;93428.19;;;12.24;42.56
24610;BME280;12758;47.890;11.694;2023-02-22T11:39:23;93429.28;;;11.79;42.12
24610;BME280;12758;47.890;11.694;2023-02-22T11:41:49;93422.50;;;11.85;42.66
24610;BME280;12758;47.890;11.694;2023-02-22T11:44:21;93425.75;;;11.50;42.66
24610;BME280;12758;47.890;11.694;2023-02-22T11:46:48;93419.97;;;11.80;42.87
24610;BME280;12758;47.890;11.694;2023-02-22T11:49:15;93422.94;;;11.75;43.78
24610;BME280;12758;47.890;11.694;2023-02-22T11:54:43;93416.72;;;11.34;44.55
24610;BME280;12758;47.890;11.694;2023-02-22T11:57:21;93412.59;;;11.93;46.67
24610;BME280;12758;47.890;11.694;2023-02-22T12:00:05;93413.50;;;12.12;42.89
24610;BME280;12758;47.890;11.694;2023-02-22T12:02:48;93407.38;;;12.16;43.97
24610;BME280;12758;47.890;11.694;2023-02-22T12:05:22;93409.66;;;12.29;44.00
24610;BME280;12758;47.890;11.694;2023-02-22T12:08:00;93409.03;;;12.04;41.30
24610;BME280;12758;47.890;11.694;2023-02-22T12:10:41;93407.38;;;11.59;44.12
24610;BME280;12758;47.890;11.694;2023-02-22T12:13:20;93409.19;;;11.55;43.29
24610;BME280;12758;47.890;11.694;2023-02-22T12:15:53;93398.81;;;11.33;44.80
24610;BME280;12758;47.890;11.694;2023-02-22T12:18:25;93400.81;;;11.88;49.53
24610;BME280;12758;47.890;11.694;2023-02-22T12:20:57;93404.94;;;12.26;44.54
24610;BME280;12758;47.890;11.694;2023-02-22T12:23:29;93403.34;;;12.25;45.82
24610;BME280;12758;47.890;11.694;2023-02-22T12:26:00;93395.34;;;12.48;43.16
24610;BME280;12758;47.890;11.694;2023-02-22T12:28:31;93390.97;;;12.28;44.12
24610;BME280;12758;47.890;11.694;2023-02-22T12:31:10;93397.38;;;12.67;41.64
24610;BME280;12758;47.890;11.694;2023-02-22T12:33:44;93381.81;;;12.68;44.12
24610;BME280;12758;47.890;11.694;2023-02-22T12:36:14;93395.56;;;12.55;40.96
24610;BME280;12758;47.890;11.694;2023-02-22T12:38:43;93380.34;;;12.39;40.82
24610;BME280;12758;47.890;11.694;2023-02-22T12:41:16;93386.41;;;12.32;40.59
24610;BME280;12758;47.890;11.694;2023-02-22T12:43:45;93383.59;;;12.60;41.81
24610;BME280;12758;47.890;11.694;2023-02-22T12:46:14;93378.84;;;12.73;40.99
24610;BME280;12758;47.890;11.694;2023-02-22T12:48:46;93380.97;;;12.64;40.04
24610;BME280;12758;47.890;11.694;2023-02-22T12:51:20;93384.28;;;12.73;58.55
24610;BME280;12758;47.890;11.694;2023-02-22T12:53:55;93379.81;;;12.17;68.72
24610;BME280;12758;47.890;11.694;2023-02-22T12:56:30;93371.63;;;12.01;73.94
24610;BME280;12758;47.890;11.694;2023-02-22T12:58:59;93373.13;;;10.90;74.53
24610;BME280;12758;47.890;11.694;2023-02-22T13:01:31;93372.47;;;10.68;85.27
24610;BME280;12758;47.890;11.694;2023-02-22T13:03:59;93371.44;;;11.38;80.33
24610;BME280;12758;47.890;11.694;2023-02-22T13:06:35;93364.66;;;10.67;82.45
24610;BME280;12758;47.890;11.694;2023-02-22T13:11:54;93368.00;;;9.36;82.30